sensor_id;sensor_type;location;lat;lon;timestamp;pressure;altitude;pressure_sealevel;temperature;humidity
54854;BME280;40747;49.480;8.658;2023-10-09T00:00:10;100885.56;;;16.57;86.32
54854;BME280;40747;49.480;8.658;2023-10-09T00:03:00;100865.09;;;16.40;86.55
54854;BME280;40747;49.480;8.658;2023-10-09T00:05:30;100891.53;;;16.62;86.02
54854;BME280;40747;49.480;8.658;2023-10-09T00:08:16;100879.19;;;16.61;86.09
54854;BME280;40747;49.480;8.658;2023-10-09T00:10:51;100875.72;;;16.59;86.20
54854;BME280;40747;49.480;8.658;2023-10-09T00:13:24;100868.59;;;16.60;86.22
54854;BME280;40747;49.480;8.658;2023-10-09T00:16:04;100876.16;;;16.69;86.11
54854;BME280;40747;49.480;8.658;2023-10-09T00:18:39;100873.06;;;16.59;86.10
54854;BME280;40747;49.480;8.658;2023-10-09T00:21:04;100865.53;;;16.50;86.47
54854;BME280;40747;49.480;8.658;2023-10-09T00:23:37;100863.16;;;16.44;86.48
54854;BME280;40747;49.480;8.658;2023-10-09T00:26:03;100865.81;;;16.44;86.99
54854;BME280;40747;49.480;8.658;2023-10-09T00:28:38;100873.06;;;16.40;87.09
54854;BME280;40747;49.480;8.658;2023-10-09T00:31:08;100859.69;;;16.42;86.93
54854;BME280;40747;49.480;8.658;2023-10-09T00:33:40;100868.25;;;16.48;86.85
54854;BME280;40747;49.480;8.658;2023-10-09T00:36:05;100867.09;;;16.54;86.74
54854;BME280;40747;49.480;8.658;2023-10-09T00:38:38;100862.28;;;16.43;87.00
54854;BME280;40747;49.480;8.658;2023-10-09T00:41:11;100855.66;;;16.33;87.63
54854;BME280;40747;49.480;8.658;2023-10-09T00:43:46;100853.44;;;16.24;87.80
54854;BME280;40747;49.480;8.658;2023-10-09T00:46:15;100848.31;;;16.38;87.54
54854;BME280;40747;49.480;8.658;2023-10-09T00:48:45;100843.09;;;16.36;87.46
54854;BME280;40747;49.480;8.658;2023-10-09T00:51:13;100843.81;;;16.40;87.38
54854;BME280;40747;49.480;8.658;2023-10-09T00:53:58;100842.44;;;16.50;87.39
54854;BME280;40747;49.480;8.658;2023-10-09T00:56:24;100841.00;;;16.43;87.25
54854;BME280;40747;49.480;8.658;2023-10-09T00:58:51;100836.34;;;16.48;87.37
54854;BME280;40747;49.480;8.658;2023-10-09T01:01:24;100832.09;;;16.44;87.33
54854;BME280;40747;49.480;8.658;2023-10-09T01:03:53;100842.09;;;16.39;87.24
54854;BME280;40747;49.480;8.658;2023-10-09T01:06:19;100835.03;;;16.38;87.47
54854;BME280;40747;49.480;8.658;2023-10-09T01:08:52;100837.28;;;16.47;87.39
54854;BME280;40747;49.480;8.658;2023-10-09T01:11:31;100835.41;;;16.49;88.03
54854;BME280;40747;49.480;8.658;2023-10-09T01:13:57;100822.69;;;16.37;87.75
54854;BME280;40747;49.480;8.658;2023-10-09T01:16:37;100833.47;;;16.34;87.81
54854;BME280;40747;49.480;8.658;2023-10-09T01:19:03;100836.63;;;16.42;88.56
54854;BME280;40747;49.480;8.658;2023-10-09T01:21:38;100833.38;;;16.35;88.16
54854;BME280;40747;49.480;8.658;2023-10-09T01:24:05;100822.19;;;16.29;88.04
54854;BME280;40747;49.480;8.658;2023-10-09T01:29:09;100824.91;;;16.27;88.76
54854;BME280;40747;49.480;8.658;2023-10-09T01:31:44;100830.59;;;16.19;89.11
54854;BME280;40747;49.480;8.658;2023-10-09T01:34:20;100821.09;;;16.33;89.11
54854;BME280;40747;49.480;8.658;2023-10-09T01:36:53;100824.06;;;16.27;88.91
54854;BME280;40747;49.480;8.658;2023-10-09T01:39:22;100826.78;;;16.44;88.59
54854;BME280;40747;49.480;8.658;2023-10-09T01:42:05;100817.31;;;16.38;88.42
54854;BME280;40747;49.480;8.658;2023-10-09T01:44:32;100820.91;;;16.37;88.37
54854;BME280;40747;49.480;8.658;2023-10-09T01:47:02;100820.69;;;16.23;88.96
54854;BME280;40747;49.480;8.658;2023-10-09T01:49:35;100812.06;;;16.18;89.28
54854;BME280;40747;49.480;8.658;2023-10-09T01:52:03;100797.63;;;16.24;89.41
54854;BME280;40747;49.480;8.658;2023-10-09T01:54:39;100792.53;;;16.19;89.28
54854;BME280;40747;49.480;8.658;2023-10-09T01:57:06;100799.91;;;16.12;89.96
54854;BME280;40747;49.480;8.658;2023-10-09T01:59:37;100797.50;;;16.27;89.46
54854;BME280;40747;49.480;8.658;2023-10-09T02:02:15;100805.22;;;16.31;89.14
54854;BME280;40747;49.480;8.658;2023-10-09T02:04:53;100800.44;;;16.20;89.41
54854;BME280;40747;49.480;8.658;2023-10-09T02:07:20;100791.16;;;16.29;89.21
54854;BME280;40747;49.480;8.658;2023-10-09T02:09:53;100793.59;;;16.34;89.14
54854;BME280;40747;49.480;8.658;2023-10-09T02:12:19;100779.44;;;16.33;88.94
54854;BME280;40747;49.480;8.658;2023-10-09T02:14:47;100781.22;;;16.33;88.92
54854;BME280;40747;49.480;8.658;2023-10-09T02:17:12;100790.53;;;16.24;89.21
54854;BME280;40747;49.480;8.658;2023-10-09T02:19:43;100786.63;;;16.31;89.18
54854;BME280;40747;49.480;8.658;2023-10-09T02:22:13;100785.03;;;16.27;89.03
54854;BME280;40747;49.480;8.658;2023-10-09T02:24:43;100784.19;;;16.27;89.43
54854;BME280;40747;49.480;8.658;2023-10-09T02:27:17;100787.88;;;16.24;90.10
54854;BME280;40747;49.480;8.658;2023-10-09T02:30:04;100785.34;;;16.21;89.44
54854;BME280;40747;49.480;8.658;2023-10-09T02:32:41;100804.94;;;16.18;90.17
54854;BME280;40747;49.480;8.658;2023-10-09T02:35:08;100794.19;;;16.21;90.04
54854;BME280;40747;49.480;8.658;2023-10-09T02:37:43;100791.53;;;16.21;89.56
54854;BME280;40747;49.480;8.658;2023-10-09T02:40:10;100795.88;;;16.22;89.39
54854;BME280;40747;49.480;8.658;2023-10-09T02:42:40;100781.94;;;16.17;89.43
54854;BME280;40747;49.480;8.658;2023-10-09T02:45:08;100795.03;;;16.22;89.60
54854;BME280;40747;49.480;8.658;2023-10-09T02:47:35;100800.91;;;16.29;89.24
54854;BME280;40747;49.480;8.658;2023-10-09T02:50:05;100796.41;;;16.31;88.65
54854;BME280;40747;49.480;8.658;2023-10-09T02:52:44;100791.44;;;16.23;88.63
54854;BME280;40747;49.480;8.658;2023-10-09T02:55:12;100791.50;;;16.02;89.41
54854;BME280;40747;49.480;8.658;2023-10-09T02:57:50;100783.25;;;15.89;90.54
54854;BME280;40747;49.480;8.658;2023-10-09T03:00:21;100797.94;;;15.97;90.58
54854;BME280;40747;49.480;8.658;2023-10-09T03:02:55;100801.78;;;16.10;89.86
54854;BME280;40747;49.480;8.658;2023-10-09T03:05:23;100795.31;;;16.16;89.69
54854;BME280;40747;49.480;8.658;2023-10-09T03:07:49;100788.50;;;16.10;89.52
54854;BME280;40747;49.480;8.658;2023-10-09T03:10:15;100791.72;;;16.17;89.37
54854;BME280;40747;49.480;8.658;2023-10-09T03:12:40;100795.03;;;16.22;89.17
54854;BME280;40747;49.480;8.658;2023-10-09T03:15:08;100788.00;;;16.21;88.78
54854;BME280;40747;49.480;8.658;2023-10-09T03:17:34;100790.19;;;16.11;90.09
54854;BME280;40747;49.480;8.658;2023-10-09T03:20:06;100792.22;;;16.06;89.72
54854;BME280;40747;49.480;8.658;2023-10-09T03:22:37;100789.72;;;16.03;89.68
54854;BME280;40747;49.480;8.658;2023-10-09T03:25:03;100790.56;;;16.03;89.58
54854;BME280;40747;49.480;8.658;2023-10-09T03:27:28;100787.63;;;16.10;89.54
54854;BME280;40747;49.480;8.658;2023-10-09T03:29:53;100789.34;;;16.11;90.03
54854;BME280;40747;49.480;8.658;2023-10-09T03:32:19;100787.78;;;16.07;89.47
54854;BME280;40747;49.480;8.658;2023-10-09T03:34:44;100787.91;;;16.03;89.56
54854;BME280;40747;49.480;8.658;2023-10-09T03:37:10;100782.66;;;16.02;89.97
54854;BME280;40747;49.480;8.658;2023-10-09T03:39:47;100768.31;;;15.87;90.86
54854;BME280;40747;49.480;8.658;2023-10-09T03:42:13;100778.78;;;15.90;90.62
54854;BME280;40747;49.480;8.658;2023-10-09T03:44:47;100785.09;;;15.87;90.40
54854;BME280;40747;49.480;8.658;2023-10-09T03:47:18;100784.19;;;15.88;90.60
54854;BME280;40747;49.480;8.658;2023-10-09T03:49:47;100781.53;;;15.88;90.52
54854;BME280;40747;49.480;8.658;2023-10-09T03:52:16;100779.78;;;15.87;90.40
54854;BME280;40747;49.480;8.658;2023-10-09T03:54:43;100783.25;;;15.89;90.64
54854;BME280;40747;49.480;8.658;2023-10-09T03:57:11;100781.63;;;15.85;91.51
54854;BME280;40747;49.480;8.658;2023-10-09T03:59:39;100787.19;;;15.79;91.50
54854;BME280;40747;49.480;8.658;2023-10-09T04:02:05;100787.63;;;15.70;92.27
54854;BME280;40747;49.480;8.658;2023-10-09T04:04:30;100775.56;;;15.63;91.98
54854;BME280;40747;49.480;8.658;2023-10-09T04:06:58;100774.75;;;15.61;91.88
54854;BME280;40747;49.480;8.658;2023-10-09T04:09:23;100778.34;;;15.60;92.34
54854;BME280;40747;49.480;8.658;2023-10-09T04:11:50;100774.75;;;15.61;92.54
54854;BME280;40747;49.480;8.658;2023-10-09T04:14:38;100763.88;;;15.67;92.13
54854;BME280;40747;49.480;8.658;2023-10-09T04:17:14;100766.88;;;15.59;92.07
54854;BME280;40747;49.480;8.658;2023-10-09T04:19:58;100764.78;;;15.66;92.06
54854;BME280;40747;49.480;8.658;2023-10-09T04:22:43;100766.63;;;15.64;91.75
54854;BME280;40747;49.480;8.658;2023-10-09T04:25:21;100762.06;;;15.67;91.86
54854;BME280;40747;49.480;8.658;2023-10-09T04:27:54;100757.91;;;15.62;91.94
54854;BME280;40747;49.480;8.658;2023-10-09T04:30:35;100761.13;;;15.68;91.93
54854;BME280;40747;49.480;8.658;2023-10-09T04:33:14;100757.75;;;15.65;91.91
54854;BME280;40747;49.480;8.658;2023-10-09T04:36:04;100757.50;;;15.50;92.29
54854;BME280;40747;49.480;8.658;2023-10-09T04:38:51;100756.69;;;15.48;92.77
54854;BME280;40747;49.480;8.658;2023-10-09T04:41:32;100740.59;;;15.32;93.31
54854;BME280;40747;49.480;8.658;2023-10-09T04:44:16;100753.94;;;15.31;93.59
54854;BME280;40747;49.480;8.658;2023-10-09T04:46:47;100750.81;;;15.42;93.29
54854;BME280;40747;49.480;8.658;2023-10-09T04:49:36;100763.59;;;15.52;92.95
54854;BME280;40747;49.480;8.658;2023-10-09T04:52:17;100765.97;;;15.59;92.29
54854;BME280;40747;49.480;8.658;2023-10-09T04:54:54;100767.97;;;15.53;92.22
54854;BME280;40747;49.480;8.658;2023-10-09T04:57:52;100762.16;;;15.45;92.22
54854;BME280;40747;49.480;8.658;2023-10-09T05:00:28;100774.63;;;15.43;92.56
54854;BME280;40747;49.480;8.658;2023-10-09T05:02:54;100770.78;;;15.50;92.41
54854;BME280;40747;49.480;8.658;2023-10-09T05:05:27;100768.84;;;15.54;91.95
54854;BME280;40747;49.480;8.658;2023-10-09T05:08:15;100773.94;;;15.59;92.18
54854;BME280;40747;49.480;8.658;2023-10-09T05:10:54;100773.16;;;15.56;93.19
54854;BME280;40747;49.480;8.658;2023-10-09T05:13:23;100771.19;;;15.41;93.81
54854;BME280;40747;49.480;8.658;2023-10-09T05:16:14;100785.16;;;15.45;93.23
54854;BME280;40747;49.480;8.658;2023-10-09T05:18:53;100787.16;;;15.39;92.92
54854;BME280;40747;49.480;8.658;2023-10-09T05:21:23;100787.13;;;15.41;92.99
54854;BME280;40747;49.480;8.658;2023-10-09T05:24:01;100792.81;;;15.32;93.20
54854;BME280;40747;49.480;8.658;2023-10-09T05:26:41;100796.94;;;15.39;92.92
54854;BME280;40747;49.480;8.658;2023-10-09T05:29:16;100790.69;;;15.40;92.69
54854;BME280;40747;49.480;8.658;2023-10-09T05:31:50;100791.28;;;15.47;92.36
54854;BME280;40747;49.480;8.658;2023-10-09T05:34:41;100797.53;;;15.46;92.35
54854;BME280;40747;49.480;8.658;2023-10-09T05:42:54;100796.47;;;15.70;91.77
54854;BME280;40747;49.480;8.658;2023-10-09T05:45:24;100783.72;;;15.58;92.33
54854;BME280;40747;49.480;8.658;2023-10-09T05:48:15;100789.09;;;15.56;92.27
54854;BME280;40747;49.480;8.658;2023-10-09T05:50:40;100792.59;;;15.57;92.87
54854;BME280;40747;49.480;8.658;2023-10-09T05:53:24;100799.38;;;15.64;91.63
54854;BME280;40747;49.480;8.658;2023-10-09T05:56:08;100792.50;;;15.60;92.55
54854;BME280;40747;49.480;8.658;2023-10-09T05:58:52;100797.81;;;15.60;92.37
54854;BME280;40747;49.480;8.658;2023-10-09T06:01:36;100801.13;;;15.65;91.37
54854;BME280;40747;49.480;8.658;2023-10-09T06:04:20;100797.50;;;15.66;91.68
54854;BME280;40747;49.480;8.658;2023-10-09T06:06:46;100808.53;;;15.57;91.73
54854;BME280;40747;49.480;8.658;2023-10-09T06:09:15;100802.16;;;15.61;91.80
54854;BME280;40747;49.480;8.658;2023-10-09T06:11:45;100802.69;;;15.69;91.81
54854;BME280;40747;49.480;8.658;2023-10-09T06:14:23;100794.38;;;15.77;91.28
54854;BME280;40747;49.480;8.658;2023-10-09T06:17:11;100795.13;;;15.81;90.92
54854;BME280;40747;49.480;8.658;2023-10-09T06:19:39;100794.81;;;15.88;90.64
54854;BME280;40747;49.480;8.658;2023-10-09T06:22:14;100794.72;;;15.90;90.71
54854;BME280;40747;49.480;8.658;2023-10-09T06:24:58;100801.88;;;15.88;89.84
54854;BME280;40747;49.480;8.658;2023-10-09T06:27:33;100797.94;;;15.97;89.98
54854;BME280;40747;49.480;8.658;2023-10-09T06:29:58;100813.69;;;16.01;91.19
54854;BME280;40747;49.480;8.658;2023-10-09T06:32:43;100808.72;;;15.94;90.58
54854;BME280;40747;49.480;8.658;2023-10-09T06:35:16;100812.97;;;15.98;88.42
54854;BME280;40747;49.480;8.658;2023-10-09T06:37:50;100815.44;;;16.02;87.75
54854;BME280;40747;49.480;8.658;2023-10-09T06:40:38;100820.16;;;16.15;86.77
54854;BME280;40747;49.480;8.658;2023-10-09T06:43:23;100800.13;;;16.08;86.32
54854;BME280;40747;49.480;8.658;2023-10-09T06:45:58;100815.66;;;16.17;85.89
54854;BME280;40747;49.480;8.658;2023-10-09T06:48:27;100814.44;;;16.24;85.45
54854;BME280;40747;49.480;8.658;2023-10-09T06:51:06;100809.97;;;16.25;85.71
54854;BME280;40747;49.480;8.658;2023-10-09T06:53:50;100816.22;;;16.24;85.00
54854;BME280;40747;49.480;8.658;2023-10-09T06:56:21;100816.59;;;16.35;84.32
54854;BME280;40747;49.480;8.658;2023-10-09T06:58:56;100813.00;;;16.36;82.89
54854;BME280;40747;49.480;8.658;2023-10-09T07:01:29;100816.44;;;16.38;82.75
54854;BME280;40747;49.480;8.658;2023-10-09T07:04:07;100817.38;;;16.56;83.79
54854;BME280;40747;49.480;8.658;2023-10-09T07:06:46;100810.25;;;16.57;82.83
54854;BME280;40747;49.480;8.658;2023-10-09T07:09:12;100808.06;;;16.65;82.11
54854;BME280;40747;49.480;8.658;2023-10-09T07:11:40;100800.59;;;16.73;81.26
54854;BME280;40747;49.480;8.658;2023-10-09T07:14:13;100815.97;;;16.85;81.33
54854;BME280;40747;49.480;8.658;2023-10-09T07:19:32;100808.03;;;16.84;80.82
54854;BME280;40747;49.480;8.658;2023-10-09T07:22:21;100819.41;;;16.87;80.50
54854;BME280;40747;49.480;8.658;2023-10-09T07:24:48;100830.63;;;16.94;80.81
54854;BME280;40747;49.480;8.658;2023-10-09T07:27:27;100828.59;;;16.99;79.99
54854;BME280;40747;49.480;8.658;2023-10-09T07:30:13;100830.88;;;17.07;79.89
54854;BME280;40747;49.480;8.658;2023-10-09T07:35:43;100827.53;;;17.21;78.88
54854;BME280;40747;49.480;8.658;2023-10-09T07:38:21;100832.41;;;17.30;79.19
54854;BME280;40747;49.480;8.658;2023-10-09T07:40:54;100836.75;;;17.31;79.78
54854;BME280;40747;49.480;8.658;2023-10-09T07:43:29;100840.00;;;17.38;78.92
54854;BME280;40747;49.480;8.658;2023-10-09T07:46:02;100838.09;;;17.40;77.65
54854;BME280;40747;49.480;8.658;2023-10-09T07:48:31;100837.03;;;17.44;78.38
54854;BME280;40747;49.480;8.658;2023-10-09T07:51:17;100827.75;;;17.51;78.49
54854;BME280;40747;49.480;8.658;2023-10-09T07:53:45;100843.13;;;17.46;78.26
54854;BME280;40747;49.480;8.658;2023-10-09T07:56:11;100825.09;;;17.51;78.58
54854;BME280;40747;49.480;8.658;2023-10-09T07:58:39;100827.13;;;17.64;78.79
54854;BME280;40747;49.480;8.658;2023-10-09T08:01:14;100828.78;;;17.66;77.55
54854;BME280;40747;49.480;8.658;2023-10-09T08:03:49;100832.59;;;17.78;78.00
54854;BME280;40747;49.480;8.658;2023-10-09T08:06:25;100835.72;;;17.87;77.48
54854;BME280;40747;49.480;8.658;2023-10-09T08:09:03;100834.84;;;17.86;76.63
54854;BME280;40747;49.480;8.658;2023-10-09T08:11:38;100835.72;;;17.87;77.06
54854;BME280;40747;49.480;8.658;2023-10-09T08:14:09;100842.31;;;17.97;77.47
54854;BME280;40747;49.480;8.658;2023-10-09T08:16:55;100840.59;;;17.96;77.20
54854;BME280;40747;49.480;8.658;2023-10-09T08:19:39;100854.53;;;18.01;76.77
54854;BME280;40747;49.480;8.658;2023-10-09T08:22:30;100837.34;;;18.07;76.21
54854;BME280;40747;49.480;8.658;2023-10-09T08:24:56;100846.03;;;18.10;76.95
54854;BME280;40747;49.480;8.658;2023-10-09T08:27:23;100849.16;;;18.18;76.70
54854;BME280;40747;49.480;8.658;2023-10-09T08:30:01;100853.19;;;18.26;77.17
54854;BME280;40747;49.480;8.658;2023-10-09T08:32:47;100846.50;;;18.34;77.00
54854;BME280;40747;49.480;8.658;2023-10-09T08:35:32;100844.63;;;18.37;76.66
54854;BME280;40747;49.480;8.658;2023-10-09T08:38:02;100845.84;;;18.47;76.66
54854;BME280;40747;49.480;8.658;2023-10-09T08:40:37;100850.47;;;18.59;75.60
54854;BME280;40747;49.480;8.658;2023-10-09T08:43:24;100851.59;;;18.71;74.68
54854;BME280;40747;49.480;8.658;2023-10-09T08:45:53;100846.00;;;18.76;74.44
54854;BME280;40747;49.480;8.658;2023-10-09T08:48:19;100847.91;;;18.74;74.59
54854;BME280;40747;49.480;8.658;2023-10-09T08:50:49;100848.81;;;18.89;72.70
54854;BME280;40747;49.480;8.658;2023-10-09T08:53:16;100864.38;;;18.98;73.12
54854;BME280;40747;49.480;8.658;2023-10-09T08:55:42;100864.59;;;19.09;74.14
54854;BME280;40747;49.480;8.658;2023-10-09T08:58:09;100864.41;;;19.12;73.11
54854;BME280;40747;49.480;8.658;2023-10-09T09:00:52;100847.13;;;19.04;74.41
54854;BME280;40747;49.480;8.658;2023-10-09T09:03:21;100867.56;;;19.35;72.74
54854;BME280;40747;49.480;8.658;2023-10-09T09:05:59;100861.22;;;19.52;72.86
54854;BME280;40747;49.480;8.658;2023-10-09T09:08:27;100865.81;;;19.64;71.40
54854;BME280;40747;49.480;8.658;2023-10-09T09:14:02;100871.47;;;19.74;72.34
54854;BME280;40747;49.480;8.658;2023-10-09T09:16:31;100871.81;;;19.84;71.51
54854;BME280;40747;49.480;8.658;2023-10-09T09:18:58;100871.22;;;19.93;70.38
54854;BME280;40747;49.480;8.658;2023-10-09T09:21:34;100868.84;;;20.03;72.05
54854;BME280;40747;49.480;8.658;2023-10-09T09:24:04;100863.03;;;19.96;71.95
54854;BME280;40747;49.480;8.658;2023-10-09T09:26:55;100868.47;;;19.95;71.15
54854;BME280;40747;49.480;8.658;2023-10-09T09:32:02;100861.34;;;19.79;72.32
54854;BME280;40747;49.480;8.658;2023-10-09T09:34:47;100847.63;;;19.86;72.66
54854;BME280;40747;49.480;8.658;2023-10-09T09:37:25;100833.63;;;19.96;72.11
54854;BME280;40747;49.480;8.658;2023-10-09T09:39:55;100837.16;;;19.97;71.52
54854;BME280;40747;49.480;8.658;2023-10-09T09:42:23;100840.88;;;19.94;70.85
54854;BME280;40747;49.480;8.658;2023-10-09T09:44:52;100825.72;;;19.95;70.46
54854;BME280;40747;49.480;8.658;2023-10-09T09:47:18;100842.22;;;20.16;69.82
54854;BME280;40747;49.480;8.658;2023-10-09T09:49:55;100856.81;;;20.25;71.40
54854;BME280;40747;49.480;8.658;2023-10-09T09:52:30;100852.63;;;20.21;72.23
54854;BME280;40747;49.480;8.658;2023-10-09T09:55:03;100858.25;;;20.30;70.63
54854;BME280;40747;49.480;8.658;2023-10-09T09:57:29;100855.25;;;20.50;72.10
54854;BME280;40747;49.480;8.658;2023-10-09T09:59:56;100844.13;;;20.28;70.49
54854;BME280;40747;49.480;8.658;2023-10-09T10:02:35;100868.56;;;20.51;71.67
54854;BME280;40747;49.480;8.658;2023-10-09T10:05:05;100871.59;;;20.59;70.11
54854;BME280;40747;49.480;8.658;2023-10-09T10:07:33;100865.75;;;20.67;71.69
54854;BME280;40747;49.480;8.658;2023-10-09T10:10:36;100874.09;;;20.77;69.45
54854;BME280;40747;49.480;8.658;2023-10-09T10:13:03;100861.56;;;20.63;70.44
54854;BME280;40747;49.480;8.658;2023-10-09T10:15:57;100873.75;;;20.82;69.17
54854;BME280;40747;49.480;8.658;2023-10-09T10:18:23;100861.81;;;20.87;69.60
54854;BME280;40747;49.480;8.658;2023-10-09T10:23:39;100871.59;;;20.74;71.17
54854;BME280;40747;49.480;8.658;2023-10-09T10:26:21;100872.53;;;20.87;69.31
54854;BME280;40747;49.480;8.658;2023-10-09T10:29:17;100869.34;;;20.95;70.02
54854;BME280;40747;49.480;8.658;2023-10-09T10:31:57;100874.44;;;20.85;68.60
54854;BME280;40747;49.480;8.658;2023-10-09T10:37:21;100884.63;;;20.93;69.87
54854;BME280;40747;49.480;8.658;2023-10-09T10:39:54;100887.13;;;20.96;70.36
54854;BME280;40747;49.480;8.658;2023-10-09T10:42:24;100887.13;;;20.96;70.79
54854;BME280;40747;49.480;8.658;2023-10-09T10:45:02;100885.41;;;20.95;72.37
54854;BME280;40747;49.480;8.658;2023-10-09T10:47:29;100890.09;;;20.91;72.80
54854;BME280;40747;49.480;8.658;2023-10-09T10:50:00;100880.16;;;20.93;72.37
54854;BME280;40747;49.480;8.658;2023-10-09T10:52:37;100868.94;;;21.01;71.53
54854;BME280;40747;49.480;8.658;2023-10-09T10:55:12;100875.06;;;21.16;71.63
54854;BME280;40747;49.480;8.658;2023-10-09T10:57:56;100869.75;;;21.29;70.63
54854;BME280;40747;49.480;8.658;2023-10-09T11:00:27;100874.72;;;21.48;71.40
54854;BME280;40747;49.480;8.658;2023-10-09T11:03:17;100872.31;;;21.58;69.05
54854;BME280;40747;49.480;8.658;2023-10-09T11:05:44;100877.69;;;21.71;68.03
54854;BME280;40747;49.480;8.658;2023-10-09T11:08:16;100882.53;;;21.79;67.45
54854;BME280;40747;49.480;8.658;2023-10-09T11:10:41;100873.00;;;22.00;67.61
54854;BME280;40747;49.480;8.658;2023-10-09T11:13:22;100860.34;;;22.15;66.94
54854;BME280;40747;49.480;8.658;2023-10-09T11:15:56;100847.66;;;22.17;67.12
54854;BME280;40747;49.480;8.658;2023-10-09T11:18:40;100833.59;;;22.39;67.14
54854;BME280;40747;49.480;8.658;2023-10-09T11:21:13;100816.25;;;22.56;66.23
54854;BME280;40747;49.480;8.658;2023-10-09T11:23:38;100808.97;;;22.58;65.40
54854;BME280;40747;49.480;8.658;2023-10-09T11:26:18;100794.50;;;22.72;64.79
54854;BME280;40747;49.480;8.658;2023-10-09T11:29:11;100789.28;;;22.82;64.29
54854;BME280;40747;49.480;8.658;2023-10-09T11:31:56;100782.94;;;22.83;64.96
54854;BME280;40747;49.480;8.658;2023-10-09T11:34:22;100787.94;;;22.77;66.58
54854;BME280;40747;49.480;8.658;2023-10-09T11:36:58;100778.22;;;22.63;65.85
54854;BME280;40747;49.480;8.658;2023-10-09T11:39:26;100772.28;;;22.46;68.11
54854;BME280;40747;49.480;8.658;2023-10-09T11:42:03;100779.88;;;22.52;66.52
54854;BME280;40747;49.480;8.658;2023-10-09T11:44:42;100777.56;;;22.83;66.19
54854;BME280;40747;49.480;8.658;2023-10-09T11:47:10;100779.56;;;22.92;65.11
54854;BME280;40747;49.480;8.658;2023-10-09T11:49:58;100793.13;;;23.15;64.58
54854;BME280;40747;49.480;8.658;2023-10-09T11:52:24;100788.91;;;23.11;64.14
54854;BME280;40747;49.480;8.658;2023-10-09T11:55:01;100789.84;;;22.99;64.61
54854;BME280;40747;49.480;8.658;2023-10-09T11:57:40;100798.88;;;22.98;64.66
54854;BME280;40747;49.480;8.658;2023-10-09T12:00:05;100808.31;;;23.03;63.89
54854;BME280;40747;49.480;8.658;2023-10-09T12:02:50;100806.53;;;22.91;64.91
54854;BME280;40747;49.480;8.658;2023-10-09T12:05:15;100797.44;;;23.05;64.54
54854;BME280;40747;49.480;8.658;2023-10-09T12:07:43;100784.94;;;22.92;64.64
54854;BME280;40747;49.480;8.658;2023-10-09T12:10:09;100784.63;;;23.08;65.56
54854;BME280;40747;49.480;8.658;2023-10-09T12:12:35;100772.13;;;23.20;63.52
54854;BME280;40747;49.480;8.658;2023-10-09T12:15:01;100764.06;;;22.96;63.18
54854;BME280;40747;49.480;8.658;2023-10-09T12:17:30;100763.06;;;22.86;63.04
54854;BME280;40747;49.480;8.658;2023-10-09T12:19:55;100768.44;;;22.86;63.13
54854;BME280;40747;49.480;8.658;2023-10-09T12:22:21;100771.53;;;23.04;62.53
54854;BME280;40747;49.480;8.658;2023-10-09T12:24:47;100777.03;;;23.27;62.28
54854;BME280;40747;49.480;8.658;2023-10-09T12:27:12;100778.34;;;23.21;61.73
54854;BME280;40747;49.480;8.658;2023-10-09T12:29:38;100765.81;;;23.33;62.10
54854;BME280;40747;49.480;8.658;2023-10-09T12:32:09;100766.94;;;23.42;61.04
54854;BME280;40747;49.480;8.658;2023-10-09T12:34:36;100760.31;;;23.46;60.05
54854;BME280;40747;49.480;8.658;2023-10-09T12:37:04;100766.19;;;23.51;60.53
54854;BME280;40747;49.480;8.658;2023-10-09T12:39:29;100765.34;;;23.62;60.75
54854;BME280;40747;49.480;8.658;2023-10-09T12:42:05;100757.06;;;23.76;61.37
54854;BME280;40747;49.480;8.658;2023-10-09T12:44:34;100758.66;;;23.79;59.83
54854;BME280;40747;49.480;8.658;2023-10-09T12:47:05;100754.59;;;23.73;59.72
54854;BME280;40747;49.480;8.658;2023-10-09T12:49:30;100750.19;;;23.61;57.96
54854;BME280;40747;49.480;8.658;2023-10-09T12:51:55;100749.69;;;23.67;57.88
54854;BME280;40747;49.480;8.658;2023-10-09T12:54:22;100755.47;;;23.62;58.42
54854;BME280;40747;49.480;8.658;2023-10-09T12:56:52;100752.50;;;23.65;58.06
54854;BME280;40747;49.480;8.658;2023-10-09T12:59:17;100738.09;;;23.78;56.31
54854;BME280;40747;49.480;8.658;2023-10-09T13:01:45;100728.09;;;23.91;55.87
54854;BME280;40747;49.480;8.658;2023-10-09T13:04:14;100710.69;;;24.07;55.19
54854;BME280;40747;49.480;8.658;2023-10-09T13:06:46;100720.97;;;24.13;55.65
54854;BME280;40747;49.480;8.658;2023-10-09T13:09:12;100727.28;;;24.23;53.85
54854;BME280;40747;49.480;8.658;2023-10-09T13:11:39;100727.78;;;24.28;53.57
54854;BME280;40747;49.480;8.658;2023-10-09T13:14:08;100729.19;;;24.44;54.20
54854;BME280;40747;49.480;8.658;2023-10-09T13:16:42;100721.31;;;24.63;53.96
54854;BME280;40747;49.480;8.658;2023-10-09T13:19:07;100713.38;;;24.62;52.52
54854;BME280;40747;49.480;8.658;2023-10-09T13:21:35;100712.22;;;24.76;53.09
54854;BME280;40747;49.480;8.658;2023-10-09T13:24:03;100695.53;;;24.82;52.83
54854;BME280;40747;49.480;8.658;2023-10-09T13:26:28;100704.53;;;24.92;52.32
54854;BME280;40747;49.480;8.658;2023-10-09T13:28:56;100697.13;;;25.06;52.64
54854;BME280;40747;49.480;8.658;2023-10-09T13:31:23;100700.50;;;25.08;54.11
54854;BME280;40747;49.480;8.658;2023-10-09T13:33:54;100696.31;;;25.15;53.42
54854;BME280;40747;49.480;8.658;2023-10-09T13:36:21;100691.91;;;25.14;51.91
54854;BME280;40747;49.480;8.658;2023-10-09T13:39:06;100682.16;;;25.23;51.50
54854;BME280;40747;49.480;8.658;2023-10-09T13:41:53;100686.91;;;25.30;51.55
54854;BME280;40747;49.480;8.658;2023-10-09T13:44:29;100662.91;;;25.27;51.68
54854;BME280;40747;49.480;8.658;2023-10-09T13:46:56;100671.53;;;25.21;51.72